Time;durP1;ratioP1;P1;durP2;ratioP2;P2;SDS_P1;SDS_P2;PMS_P1;PMS_P2;Temp;Humidity;BMP_temperature;BMP_pressure;BME280_temperature;BME280_humidity;BME280_pressure;Samples;Min_cycle;Max_cycle;Signal;HPM_P1;HPM_P2
2021/06/08 00:01:56;;;;;;;10.03;6.60;;;;;;;-144.99;87.02;52366.56;5069018;28;20204;-80
2021/06/08 00:04:28;;;;;;;12.00;7.17;;;;;;;-144.99;86.79;52289.13;5066030;28;20275;-79
2021/06/08 00:07:00;;;;;;;10.77;7.93;;;;;;;-144.99;86.61;52360.44;5061582;28;20201;-78
2021/06/08 00:09:34;;;;;;;8.27;6.90;;;;;;;-144.99;86.65;52364.53;5071411;28;20644;-81
2021/06/08 00:12:09;;;;;;;10.97;7.87;;;;;;;-144.99;86.52;52368.59;5057414;28;20315;-79
2021/06/08 00:14:44;;;;;;;10.37;8.50;;;;;;;-144.99;86.40;52358.41;5066728;28;20208;-82
2021/06/08 00:17:20;;;;;;;9.27;7.20;;;;;;;-144.99;86.35;52378.78;5070792;28;20520;-80
2021/06/08 00:20:01;;;;;;;11.13;6.63;;;;;;;-144.99;86.32;52352.28;5064136;28;20209;-80
2021/06/08 00:22:35;;;;;;;7.37;6.37;;;;;;;-144.99;86.19;52325.81;5059062;28;20233;-79
2021/06/08 00:25:11;;;;;;;8.03;6.73;;;;;;;-144.99;86.14;52321.72;5062137;28;20220;-80
2021/06/08 00:27:46;;;;;;;16.90;7.73;;;;;;;-144.99;86.11;52325.81;5074535;28;20597;-79
2021/06/08 00:30:20;;;;;;;8.67;6.30;;;;;;;-144.99;86.16;52317.66;5065192;28;20561;-79
2021/06/08 00:33:06;;;;;;;10.87;6.77;;;;;;;-144.99;85.98;52352.28;5071502;28;20402;-79
2021/06/08 00:35:40;;;;;;;9.47;6.50;;;;;;;-144.99;85.88;52350.25;5063495;28;20738;-80
2021/06/08 00:38:12;;;;;;;11.60;7.93;;;;;;;-144.99;85.79;52338.03;5070421;28;20205;-80
2021/06/08 00:40:48;;;;;;;9.90;7.30;;;;;;;-144.99;86.04;52338.03;5074358;28;20197;-77
2021/06/08 00:43:28;;;;;;;8.27;6.60;;;;;;;-144.99;85.88;52352.28;5072652;28;20319;-79
2021/06/08 00:46:03;;;;;;;9.80;6.60;;;;;;;-144.99;85.91;52358.41;5070750;28;20208;-78
2021/06/08 00:48:39;;;;;;;8.60;7.00;;;;;;;-144.99;86.07;52325.81;5071005;28;20200;-78
2021/06/08 00:51:10;;;;;;;7.00;6.33;;;;;;;-144.99;85.79;52346.19;5069820;28;20212;-77
2021/06/08 00:53:42;;;;;;;7.87;6.73;;;;;;;-144.99;85.93;52370.63;5070784;28;20330;-77
2021/06/08 00:56:13;;;;;;;7.00;5.90;;;;;;;-144.99;86.04;52317.66;5072270;28;20243;-78
2021/06/08 00:58:42;;;;;;;10.10;7.37;;;;;;;-144.99;85.79;52340.06;5063820;28;20335;-76
2021/06/08 01:01:17;;;;;;;9.33;7.93;;;;;;;-144.99;85.81;52342.09;5064625;28;20656;-78
2021/06/08 01:03:55;;;;;;;9.50;6.90;;;;;;;-144.99;85.82;52354.34;5065869;28;20250;-80
2021/06/08 01:06:26;;;;;;;10.67;8.83;;;;;;;-144.99;85.89;52382.88;5070498;28;20199;-80
2021/06/08 01:09:01;;;;;;;11.93;8.27;;;;;;;-144.99;85.66;52342.09;5065024;28;20227;-79
2021/06/08 01:11:36;;;;;;;10.60;7.97;;;;;;;-144.99;85.69;52333.94;5066320;28;20737;-81
2021/06/08 01:14:10;;;;;;;8.80;7.13;;;;;;;-144.99;85.88;52358.41;5067552;28;20244;-79
2021/06/08 01:16:45;;;;;;;7.07;6.37;;;;;;;-144.99;85.84;52342.09;5064117;28;20228;-80
2021/06/08 01:19:22;;;;;;;9.67;6.23;;;;;;;-144.99;85.84;52372.69;5075328;28;20204;-80
2021/06/08 01:21:58;;;;;;;9.10;7.13;;;;;;;-144.99;85.95;52362.50;5069915;28;20204;-80
2021/06/08 01:24:32;;;;;;;7.00;6.30;;;;;;;-144.99;85.84;52386.94;5078323;28;20328;-82
2021/06/08 01:27:04;;;;;;;12.00;8.13;;;;;;;-144.99;85.84;52346.19;5084084;28;20224;-83
2021/06/08 01:29:40;;;;;;;10.40;7.27;;;;;;;-144.99;85.80;52372.69;5071232;28;20210;-82
2021/06/08 01:32:12;;;;;;;8.77;6.53;;;;;;;-144.99;85.79;52338.03;5078579;28;20284;-80
2021/06/08 01:34:45;;;;;;;9.60;7.63;;;;;;;-144.99;85.74;52342.09;5073448;28;20211;-80
2021/06/08 01:37:21;;;;;;;7.23;6.37;;;;;;;-144.99;85.67;52366.56;5090561;28;20197;-82
2021/06/08 01:39:53;;;;;;;7.80;6.87;;;;;;;-144.99;85.91;52321.72;5080438;28;20205;-83
2021/06/08 01:42:28;;;;;;;7.87;7.03;;;;;;;-144.99;85.97;52358.41;5070179;28;20624;-82
2021/06/08 01:45:03;;;;;;;8.37;6.80;;;;;;;-144.99;85.95;52364.53;5072874;28;20679;-82
2021/06/08 01:47:37;;;;;;;7.23;6.37;;;;;;;-144.99;85.96;52321.72;5086899;28;20223;-84
2021/06/08 01:50:12;;;;;;;8.47;6.47;;;;;;;-144.99;85.98;52352.28;5086766;28;20263;-81
2021/06/08 01:52:56;;;;;;;9.10;6.37;;;;;;;-144.99;85.85;52331.91;5078698;28;20228;-83
2021/06/08 01:55:34;;;;;;;8.73;6.63;;;;;;;-144.99;85.70;52354.34;5074546;28;20212;-83
2021/06/08 01:58:11;;;;;;;7.87;6.53;;;;;;;-144.99;85.67;52407.31;5073534;28;20232;-82
2021/06/08 02:00:49;;;;;;;8.70;7.10;;;;;;;-144.99;85.59;52323.75;5074679;28;20216;-82
2021/06/08 02:03:25;;;;;;;9.17;6.70;;;;;;;-144.99;85.59;52348.22;5070095;28;20232;-83
2021/06/08 02:06:06;;;;;;;8.30;6.87;;;;;;;-144.99;85.54;52370.63;5070779;28;20231;-81
2021/06/08 02:08:46;;;;;;;6.83;5.67;;;;;;;-144.99;85.72;52374.72;5072752;28;20299;-81
2021/06/08 02:11:26;;;;;;;9.33;7.30;;;;;;;-144.99;85.77;52354.34;5072101;28;20638;-82
2021/06/08 02:14:08;;;;;;;7.50;6.77;;;;;;;-144.99;85.72;52346.19;5074061;28;20275;-81
2021/06/08 02:16:51;;;;;;;8.20;6.83;;;;;;;-144.99;85.75;52370.63;5073171;28;20350;-78
2021/06/08 02:19:28;;;;;;;10.33;9.27;;;;;;;-144.99;85.57;52382.88;5075937;28;20250;-80
2021/06/08 02:22:05;;;;;;;8.10;7.30;;;;;;;-144.99;85.49;52407.31;5064696;28;20211;-80
2021/06/08 02:24:56;;;;;;;11.23;8.77;;;;;;;-144.99;85.76;52376.75;5073591;28;20258;-81
2021/06/08 02:27:33;;;;;;;9.73;7.77;;;;;;;-144.99;85.72;52360.44;5069844;28;20200;-80
2021/06/08 02:30:08;;;;;;;9.73;7.37;;;;;;;-144.99;85.69;52386.94;5070239;28;20287;-80
2021/06/08 02:32:44;;;;;;;9.67;8.67;;;;;;;-144.99;85.77;52362.50;5075087;28;20278;-79
2021/06/08 02:35:20;;;;;;;8.30;7.50;;;;;;;-144.99;85.91;52348.22;5060289;28;20197;-78
2021/06/08 02:37:57;;;;;;;12.17;6.90;;;;;;;-144.99;85.89;52360.44;5069312;28;20272;-81
2021/06/08 02:40:31;;;;;;;8.77;7.87;;;;;;;-144.99;85.84;52386.94;5068024;28;20241;-81
2021/06/08 02:43:04;;;;;;;10.17;9.00;;;;;;;-144.99;85.93;52374.72;5077226;28;20235;-81
2021/06/08 02:45:39;;;;;;;11.53;8.83;;;;;;;-144.99;85.88;52350.25;5072104;28;20223;-81
2021/06/08 02:48:16;;;;;;;11.50;8.87;;;;;;;-144.99;85.84;52362.50;5059655;28;20623;-81
2021/06/08 02:50:49;;;;;;;9.93;7.40;;;;;;;-144.99;86.04;52346.19;5074977;28;20232;-81
2021/06/08 02:53:22;;;;;;;7.73;6.47;;;;;;;-144.99;85.95;52409.38;5076359;28;20237;-80
2021/06/08 02:55:59;;;;;;;11.13;8.47;;;;;;;-144.99;86.06;52411.41;5064316;28;20270;-80
2021/06/08 02:58:34;;;;;;;8.00;6.93;;;;;;;-144.99;86.11;52362.50;5067288;28;20197;-81
2021/06/08 03:01:11;;;;;;;9.80;8.77;;;;;;;-144.99;86.26;52329.88;5076247;28;20747;-81
2021/06/08 03:03:49;;;;;;;10.37;8.53;;;;;;;-144.99;86.26;52364.53;5075986;28;20254;-81
2021/06/08 03:06:29;;;;;;;8.57;7.53;;;;;;;-144.99;86.21;52321.72;5067936;28;20238;-80
2021/06/08 03:09:08;;;;;;;12.73;7.57;;;;;;;-144.99;86.24;52384.91;5081101;28;20226;-81
2021/06/08 03:11:48;;;;;;;12.03;8.37;;;;;;;-144.99;86.13;52366.56;5074255;28;20227;-82
2021/06/08 03:14:27;;;;;;;9.07;7.20;;;;;;;-144.99;86.02;52358.41;5075971;28;20254;-83
2021/06/08 03:17:06;;;;;;;9.27;8.20;;;;;;;-144.99;86.08;52362.50;5062570;28;20208;-84
2021/06/08 03:19:42;;;;;;;12.43;7.97;;;;;;;-144.99;86.25;52374.72;5077136;28;20209;-85
2021/06/08 03:22:18;;;;;;;9.47;8.10;;;;;;;-144.99;86.37;52391.03;5075598;28;20212;-85
2021/06/08 03:24:56;;;;;;;8.80;6.97;;;;;;;-144.99;86.29;52338.03;5077423;28;20211;-83
2021/06/08 03:27:33;;;;;;;7.37;6.67;;;;;;;-144.99;86.48;52370.63;5073633;28;20268;-86
2021/06/08 03:30:09;;;;;;;7.87;7.07;;;;;;;-144.99;86.23;52382.88;5066034;28;20459;-85
2021/06/08 03:32:43;;;;;;;7.77;6.97;;;;;;;-144.99;86.45;52354.34;5076185;28;20516;-82
2021/06/08 03:35:15;;;;;;;9.17;7.13;;;;;;;-144.99;86.53;52309.50;5082466;28;20201;-84
2021/06/08 03:37:50;;;;;;;8.03;7.23;;;;;;;-144.99;86.42;52382.88;5074185;28;20229;-84
2021/06/08 03:40:27;;;;;;;12.30;9.07;;;;;;;-144.99;86.60;52362.50;5073501;28;20215;-85
2021/06/08 03:43:00;;;;;;;10.03;7.47;;;;;;;-144.99;86.42;52333.94;5080091;28;20318;-85
2021/06/08 03:45:33;;;;;;;12.33;7.73;;;;;;;-144.99;86.65;52366.56;5074273;28;21465;-85
2021/06/08 03:48:09;;;;;;;8.87;7.97;;;;;;;-144.99;86.68;52382.88;5067229;28;20584;-79
2021/06/08 03:50:41;;;;;;;11.47;8.37;;;;;;;-144.99;86.77;52354.34;5072239;28;20667;-81
2021/06/08 03:53:16;;;;;;;8.60;7.43;;;;;;;-144.99;86.90;52321.72;5070198;28;20311;-79
2021/06/08 03:55:53;;;;;;;9.03;8.13;;;;;;;-144.99;87.00;52354.34;5072299;28;20655;-79
2021/06/08 03:58:29;;;;;;;9.80;8.33;;;;;;;-144.99;86.86;52350.25;5065371;28;20201;-82
2021/06/08 04:01:04;;;;;;;7.57;6.80;;;;;;;-144.99;86.93;52370.63;5071030;28;20201;-82
2021/06/08 04:03:40;;;;;;;8.90;8.00;;;;;;;-144.99;86.78;52391.03;5067368;28;20216;-77
2021/06/08 04:06:22;;;;;;;11.13;8.00;;;;;;;-144.99;86.77;52342.09;5060461;28;20250;-78
2021/06/08 04:08:57;;;;;;;10.13;7.67;;;;;;;-144.99;86.42;52399.19;5070152;28;20208;-74
2021/06/08 04:11:31;;;;;;;15.17;7.87;;;;;;;-144.99;86.65;52376.75;5064290;28;20224;-79
2021/06/08 04:14:05;;;;;;;9.17;7.93;;;;;;;-144.99;86.73;52366.56;5073013;28;20233;-79
2021/06/08 04:16:41;;;;;;;9.70;8.20;;;;;;;-144.99;86.53;52423.63;5075839;28;20273;-83
2021/06/08 04:19:16;;;;;;;9.03;7.80;;;;;;;-144.99;86.32;52350.25;5081642;28;20287;-79
2021/06/08 04:21:54;;;;;;;8.70;6.37;;;;;;;-144.99;86.32;52358.41;5065289;28;20265;-79
2021/06/08 04:24:29;;;;;;;9.63;8.57;;;;;;;-144.99;86.66;52395.09;5069844;28;20252;-79
2021/06/08 04:27:00;;;;;;;10.87;8.60;;;;;;;-144.99;87.02;52346.19;5068331;28;20296;-79
2021/06/08 04:29:34;;;;;;;10.50;7.60;;;;;;;-144.99;86.97;52378.78;5060709;28;20197;-79
2021/06/08 04:32:10;;;;;;;8.83;7.93;;;;;;;-144.99;87.20;52374.72;5070759;28;20200;-79
2021/06/08 04:34:44;;;;;;;11.10;8.00;;;;;;;-144.99;87.39;52313.56;5070946;28;20224;-79
2021/06/08 04:37:20;;;;;;;8.70;7.17;;;;;;;-144.99;87.09;52368.59;5069545;28;20220;-79
2021/06/08 04:39:49;;;;;;;8.20;7.40;;;;;;;-144.99;87.36;52346.19;5072103;28;20661;-78
2021/06/08 04:42:22;;;;;;;9.60;7.03;;;;;;;-144.99;87.14;52331.91;5070483;28;20283;-78
2021/06/08 04:44:58;;;;;;;8.60;7.40;;;;;;;-144.99;86.77;52342.09;5066231;28;20244;-77
2021/06/08 04:47:33;;;;;;;10.83;8.67;;;;;;;-144.99;86.69;52350.25;5060243;28;20752;-77
2021/06/08 04:50:08;;;;;;;8.70;7.40;;;;;;;-144.99;86.21;52382.88;5068409;28;20218;-78
2021/06/08 04:52:40;;;;;;;8.53;6.40;;;;;;;-144.99;86.44;52370.63;5074982;28;20323;-82
2021/06/08 04:55:16;;;;;;;9.80;6.83;;;;;;;-144.99;85.97;52342.09;5062690;28;20669;-78
2021/06/08 04:57:51;;;;;;;7.00;6.23;;;;;;;-144.99;86.42;52321.72;5075026;28;20263;-79
2021/06/08 05:00:35;;;;;;;8.10;6.77;;;;;;;-144.99;86.09;52329.88;5076287;28;20222;-83
2021/06/08 05:03:14;;;;;;;9.43;6.93;;;;;;;-144.99;85.26;52358.41;5073698;28;20235;-81
2021/06/08 05:05:52;;;;;;;9.40;8.50;;;;;;;-144.99;84.75;52325.81;5077269;28;20215;-82
2021/06/08 05:08:35;;;;;;;11.47;7.70;;;;;;;-144.99;84.04;52370.63;5080555;28;20216;-82
2021/06/08 05:11:17;;;;;;;9.27;7.27;;;;;;;-144.99;83.72;52346.19;4012578;28;10000700;-77
2021/06/08 05:13:53;;;;;;;9.07;6.37;;;;;;;-144.99;83.42;52313.56;5069597;28;20236;-78
2021/06/08 05:16:49;;;;;;;7.80;6.70;;;;;;;-144.99;83.29;52362.50;5065660;28;20289;-76
2021/06/08 05:19:26;;;;;;;11.60;6.03;;;;;;;-144.99;82.69;52370.63;5065309;28;20213;-77
2021/06/08 05:22:01;;;;;;;7.87;6.93;;;;;;;-144.99;82.33;52354.34;5070160;28;20224;-77
2021/06/08 05:24:36;;;;;;;13.67;7.50;;;;;;;-144.99;82.09;52309.50;5071077;28;20248;-75
2021/06/08 05:27:12;;;;;;;9.97;7.57;;;;;;;-144.99;81.78;52323.75;5065347;28;20206;-78
2021/06/08 05:29:45;;;;;;;8.73;5.60;;;;;;;-144.99;81.57;52350.25;5073098;28;20671;-84
2021/06/08 05:32:18;;;;;;;8.47;7.10;;;;;;;-144.99;81.26;52362.50;5073358;28;20286;-85
2021/06/08 05:34:53;;;;;;;9.60;6.93;;;;;;;-144.99;80.96;52338.03;5068724;28;20209;-79
2021/06/08 05:37:28;;;;;;;10.00;7.53;;;;;;;-144.99;80.91;52329.88;5069767;28;20292;-80
2021/06/08 05:40:05;;;;;;;9.53;7.00;;;;;;;-144.99;80.64;52338.03;5061233;28;20242;-79
2021/06/08 05:42:40;;;;;;;7.43;6.63;;;;;;;-144.99;80.22;52289.13;5074971;28;20585;-80
2021/06/08 05:45:15;;;;;;;9.70;7.33;;;;;;;-144.99;80.06;52350.25;5063621;28;20221;-79
2021/06/08 05:47:50;;;;;;;7.73;6.07;;;;;;;-144.99;79.81;52333.94;5072477;28;20236;-82
2021/06/08 05:50:26;;;;;;;8.90;6.70;;;;;;;-144.99;79.31;52362.50;5071235;28;20221;-80
2021/06/08 05:53:01;;;;;;;12.27;7.90;;;;;;;-144.99;79.21;52305.41;5062779;28;20230;-84
2021/06/08 05:55:41;;;;;;;6.57;5.87;;;;;;;-144.99;78.88;52293.19;5072890;28;20300;-80
2021/06/08 05:58:15;;;;;;;9.53;6.97;;;;;;;-144.99;78.95;52321.72;5067585;28;20197;-81
2021/06/08 06:00:50;;;;;;;14.20;6.73;;;;;;;-144.99;78.68;52338.03;5072953;28;20217;-80
2021/06/08 06:03:25;;;;;;;10.93;6.70;;;;;;;-144.99;78.35;52299.31;5074740;28;20224;-79
2021/06/08 06:06:11;;;;;;;7.03;5.27;;;;;;;-144.99;78.07;52346.19;5070356;28;20700;-79
2021/06/08 06:08:46;;;;;;;11.40;7.00;;;;;;;-144.99;77.99;52323.75;5062284;28;20237;-82
2021/06/08 06:11:16;;;;;;;6.40;5.70;;;;;;;-144.99;77.41;52280.97;5058318;28;20213;-79
2021/06/08 06:13:57;;;;;;;8.23;6.40;;;;;;;-144.99;77.12;52342.09;5068315;28;20230;-82
2021/06/08 06:16:34;;;;;;;8.60;7.17;;;;;;;-144.99;76.55;52303.38;5076709;28;20212;-85
2021/06/08 06:19:08;;;;;;;10.23;7.53;;;;;;;-144.99;76.50;52321.72;5093314;28;20493;-86
2021/06/08 06:21:44;;;;;;;11.07;6.73;;;;;;;-144.99;76.17;52338.03;5077187;28;20260;-79
2021/06/08 06:24:13;;;;;;;10.47;7.10;;;;;;;-144.99;76.07;52307.47;5071280;28;20764;-82
2021/06/08 06:26:48;;;;;;;12.13;6.07;;;;;;;-144.99;75.86;52285.03;5070752;28;20253;-80
2021/06/08 06:29:22;;;;;;;7.23;6.27;;;;;;;-144.99;75.63;52266.69;5062997;28;20211;-82
2021/06/08 06:31:56;;;;;;;8.17;6.97;;;;;;;-144.99;75.25;52266.69;5072908;28;20433;-82
2021/06/08 06:34:31;;;;;;;7.37;6.27;;;;;;;-144.99;75.36;52319.69;5079191;28;20225;-82
2021/06/08 06:37:12;;;;;;;14.17;6.93;;;;;;;-144.99;75.10;52301.34;5076990;28;20223;-82
2021/06/08 06:39:49;;;;;;;10.13;7.17;;;;;;;-144.99;75.02;52321.72;5061476;28;20210;-84
2021/06/08 06:42:23;;;;;;;8.97;6.57;;;;;;;-144.99;74.72;52301.34;5069389;28;20281;-82
2021/06/08 06:44:55;;;;;;;16.83;7.23;;;;;;;-144.99;74.23;52305.41;5070479;28;20635;-82
2021/06/08 06:47:28;;;;;;;8.37;6.87;;;;;;;-144.99;73.89;52276.88;5072233;28;20636;-85
2021/06/08 06:50:03;;;;;;;10.00;7.17;;;;;;;-144.99;73.68;52291.16;5069965;28;20278;-83
2021/06/08 06:52:37;;;;;;;8.70;7.60;;;;;;;-144.99;73.61;52299.31;5069726;28;20238;-84
2021/06/08 06:55:13;;;;;;;10.17;8.80;;;;;;;-144.99;73.60;52283.00;5078734;28;20205;-84
2021/06/08 06:57:48;;;;;;;8.40;6.80;;;;;;;-144.99;73.33;52297.25;5076489;28;20605;-85
2021/06/08 07:00:23;;;;;;;7.30;5.93;;;;;;;-144.99;72.56;52280.97;5076838;28;20784;-83
2021/06/08 07:03:00;;;;;;;9.37;8.03;;;;;;;-144.99;71.89;52295.22;5079617;28;20235;-85
2021/06/08 07:05:34;;;;;;;11.10;8.33;;;;;;;-144.99;71.32;52262.63;5074509;28;20275;-82
2021/06/08 07:08:12;;;;;;;8.73;7.83;;;;;;;-144.99;71.34;52280.97;5074339;28;20208;-83
2021/06/08 07:10:47;;;;;;;10.43;8.93;;;;;;;-144.99;70.60;52264.66;5076870;28;20742;-81
2021/06/08 07:13:23;;;;;;;8.70;7.27;;;;;;;-144.99;70.37;52289.13;5063593;28;20288;-78
2021/06/08 07:15:58;;;;;;;8.80;7.17;;;;;;;-144.99;69.64;52244.28;5068468;28;20216;-81
2021/06/08 07:18:33;;;;;;;8.00;6.10;;;;;;;-144.99;68.82;52272.81;5073685;28;20598;-79
2021/06/08 07:21:11;;;;;;;6.03;5.43;;;;;;;-144.99;68.14;52283.00;5073244;28;20248;-82
2021/06/08 07:24:00;;;;;;;9.53;7.27;;;;;;;-144.99;67.42;52244.28;5073131;28;20585;-78
2021/06/08 07:26:36;;;;;;;8.53;6.73;;;;;;;-144.99;66.86;52260.56;5072285;28;20271;-81
2021/06/08 07:29:14;;;;;;;11.37;6.57;;;;;;;-144.99;66.61;52276.88;5067638;28;20296;-80
2021/06/08 07:31:51;;;;;;;7.53;5.57;;;;;;;-144.99;66.65;52270.78;5069968;28;20534;-82
2021/06/08 07:34:34;;;;;;;7.73;6.93;;;;;;;-144.99;66.13;52262.63;5086653;28;20292;-82
2021/06/08 07:37:10;;;;;;;5.47;4.53;;;;;;;-144.99;64.26;52236.13;5069762;28;20460;-84
2021/06/08 07:39:50;;;;;;;8.73;5.93;;;;;;;-144.99;61.79;52211.66;5084920;28;20257;-83
2021/06/08 07:42:27;;;;;;;5.47;4.50;;;;;;;-144.99;61.69;52232.03;5087448;28;20193;-82
2021/06/08 07:45:06;;;;;;;7.43;5.10;;;;;;;-144.99;61.23;52223.88;5083183;28;20279;-83
2021/06/08 07:47:42;;;;;;;5.27;4.60;;;;;;;-144.99;60.16;52217.78;5082662;28;20212;-83
2021/06/08 07:50:18;;;;;;;5.70;4.90;;;;;;;-144.99;59.31;52199.44;5085434;28;20246;-83
2021/06/08 07:52:57;;;;;;;7.13;6.43;;;;;;;-144.99;58.68;52213.69;5076988;28;20259;-81
2021/06/08 07:55:32;;;;;;;6.20;5.27;;;;;;;-144.99;58.86;52256.50;5088149;28;20207;-84
2021/06/08 07:58:07;;;;;;;6.90;4.67;;;;;;;-144.99;57.75;52191.28;5084391;28;20212;-83
2021/06/08 08:00:39;;;;;;;6.03;5.43;;;;;;;-144.99;56.96;52209.63;5085672;28;20217;-82
2021/06/08 08:03:25;;;;;;;8.17;4.17;;;;;;;-144.99;57.04;52174.97;5085837;28;20245;-87
2021/06/08 08:06:02;;;;;;;5.23;4.53;;;;;;;-144.99;56.52;52227.97;5084254;28;20241;-82
2021/06/08 08:08:35;;;;;;;8.30;4.27;;;;;;;-144.99;56.39;52232.03;5086274;28;20218;-83
2021/06/08 08:11:15;;;;;;;6.60;5.43;;;;;;;-144.99;55.82;52215.75;5075143;28;20705;-77
2021/06/08 08:13:52;;;;;;;7.10;4.53;;;;;;;-144.99;55.57;52179.06;5068058;28;20330;-73
2021/06/08 08:16:24;;;;;;;6.67;3.93;;;;;;;-144.99;55.93;52203.50;5067469;28;20683;-74
2021/06/08 08:18:59;;;;;;;3.93;3.53;;;;;;;-144.99;54.85;52207.59;5068882;28;20318;-73
2021/06/08 08:21:34;;;;;;;4.37;3.40;;;;;;;-144.99;54.38;52179.06;5071211;28;20736;-77
2021/06/08 08:24:09;;;;;;;4.53;4.03;;;;;;;-144.99;54.65;52209.63;5072982;28;20212;-79
2021/06/08 08:26:45;;;;;;;7.17;3.80;;;;;;;-144.99;54.30;52170.91;5069082;28;20596;-78
2021/06/08 08:29:19;;;;;;;7.77;4.30;;;;;;;-144.99;54.07;52187.19;5071682;28;20291;-75
2021/06/08 08:31:55;;;;;;;6.33;3.03;;;;;;;-144.99;53.33;52146.44;5069468;28;20252;-81
2021/06/08 08:34:30;;;;;;;6.03;3.20;;;;;;;-144.99;52.50;52203.50;5075430;28;20227;-78
2021/06/08 08:37:04;;;;;;;4.70;3.47;;;;;;;-144.99;51.61;52158.66;5058502;28;20252;-79
2021/06/08 08:39:39;;;;;;;2.40;2.20;;;;;;;-144.99;50.60;52172.94;5068603;28;20836;-75
2021/06/08 08:42:13;;;;;;;4.00;2.73;;;;;;;-144.99;48.88;52183.13;5064748;28;20675;-77
2021/06/08 08:44:48;;;;;;;7.10;4.83;;;;;;;-144.99;48.39;52162.75;5068372;28;20242;-77
2021/06/08 08:47:21;;;;;;;6.93;2.80;;;;;;;-144.99;48.06;52146.44;5066571;28;20222;-79
2021/06/08 08:49:56;;;;;;;3.50;2.40;;;;;;;-144.99;47.09;52185.16;5070249;28;20307;-77
2021/06/08 08:52:27;;;;;;;6.83;3.23;;;;;;;-144.99;47.22;52158.66;5067900;28;20287;-76
2021/06/08 08:55:03;;;;;;;2.93;1.73;;;;;;;-144.99;46.74;52174.97;5058748;28;20207;-77
2021/06/08 08:57:40;;;;;;;3.53;2.17;;;;;;;-144.99;46.62;52085.31;5069828;28;20275;-75
2021/06/08 09:00:16;;;;;;;4.83;2.20;;;;;;;-144.99;46.11;52154.59;5070789;28;20257;-80
2021/06/08 09:02:49;;;;;;;5.73;2.00;;;;;;;-144.99;46.66;52130.13;5064396;28;20729;-78
2021/06/08 09:05:24;;;;;;;3.80;1.87;;;;;;;-144.99;45.83;52146.44;5063925;28;20198;-75
2021/06/08 09:07:58;;;;;;;4.47;2.30;;;;;;;-144.99;45.69;52162.75;5061075;28;20265;-77
2021/06/08 09:10:33;;;;;;;3.60;2.57;;;;;;;-144.99;45.39;52130.13;5069310;28;20225;-76
2021/06/08 09:13:10;;;;;;;7.40;3.60;;;;;;;-144.99;45.99;52168.84;5061380;28;20229;-77
2021/06/08 09:15:41;;;;;;;6.53;2.67;;;;;;;-144.99;46.06;52134.22;5067759;28;20245;-76
2021/06/08 09:18:14;;;;;;;4.70;2.30;;;;;;;-144.99;45.80;52121.97;5063998;28;20209;-75
2021/06/08 09:20:46;;;;;;;4.03;3.17;;;;;;;-144.99;45.31;52124.03;5068041;28;20756;-77
2021/06/08 09:23:26;;;;;;;7.57;3.40;;;;;;;-144.99;45.55;52109.75;5068557;28;20285;-76
2021/06/08 09:26:03;;;;;;;5.20;3.60;;;;;;;-144.99;45.25;52066.97;5059971;28;20209;-76
2021/06/08 09:28:41;;;;;;;6.83;2.57;;;;;;;-144.99;44.75;52126.06;5068365;28;20218;-77
2021/06/08 09:31:23;;;;;;;5.80;2.37;;;;;;;-144.99;44.03;52077.16;5061238;28;20213;-79
2021/06/08 09:33:58;;;;;;;2.87;2.33;;;;;;;-144.99;43.57;52069.00;5059506;28;20679;-77
2021/06/08 09:36:34;;;;;;;3.57;2.40;;;;;;;-144.99;43.71;52142.38;5068319;28;20227;-79
2021/06/08 09:39:10;;;;;;;3.30;2.53;;;;;;;-144.99;43.82;52081.22;5069211;28;20219;-78
2021/06/08 09:41:49;;;;;;;5.53;2.90;;;;;;;-144.99;43.55;52128.09;5070401;28;20284;-78
2021/06/08 09:44:28;;;;;;;5.80;3.70;;;;;;;-144.99;43.86;52130.13;5070165;28;20277;-79
2021/06/08 09:47:03;;;;;;;4.20;3.00;;;;;;;-144.99;43.75;52158.66;5065055;28;20208;-75
2021/06/08 09:49:43;;;;;;;4.07;2.50;;;;;;;-144.99;43.90;52138.28;5068611;28;20215;-77
2021/06/08 09:52:22;;;;;;;3.33;1.57;;;;;;;-144.99;43.89;52117.91;5067663;28;20211;-76
2021/06/08 09:55:01;;;;;;;5.77;2.83;;;;;;;-144.99;43.79;52103.66;5067145;28;20227;-75
2021/06/08 09:57:36;;;;;;;6.70;3.23;;;;;;;-144.99;43.86;52126.06;5067248;28;20905;-78
2021/06/08 10:00:13;;;;;;;7.57;3.07;;;;;;;-144.99;43.75;52140.31;5060095;28;20206;-78
2021/06/08 10:02:49;;;;;;;4.67;2.90;;;;;;;-144.99;43.80;52105.69;5067026;28;20318;-78
2021/06/08 10:05:24;;;;;;;4.97;2.30;;;;;;;-144.99;43.59;52099.56;5067321;28;20306;-76
2021/06/08 10:08:08;;;;;;;7.50;3.03;;;;;;;-144.99;43.68;52091.41;5067511;28;20229;-79
2021/06/08 10:10:49;;;;;;;3.03;2.63;;;;;;;-144.99;43.66;52126.06;5066453;28;20689;-79
2021/06/08 10:13:25;;;;;;;4.77;3.23;;;;;;;-144.99;43.11;52085.31;5060282;28;20321;-76
2021/06/08 10:16:08;;;;;;;5.73;3.47;;;;;;;-144.99;43.16;52085.31;5065091;28;20257;-77
2021/06/08 10:18:50;;;;;;;6.77;3.17;;;;;;;-144.99;43.09;52081.22;5064145;28;20212;-78
2021/06/08 10:21:31;;;;;;;3.93;3.07;;;;;;;-144.99;42.99;52048.63;5066110;28;20285;-78
2021/06/08 10:24:10;;;;;;;5.53;3.83;;;;;;;-144.99;42.36;52052.69;5067110;28;20727;-77
2021/06/08 10:26:45;;;;;;;5.33;4.13;;;;;;;-144.99;42.06;52034.34;5067161;28;20208;-77
2021/06/08 10:29:21;;;;;;;3.57;2.90;;;;;;;-144.99;41.18;52085.31;5054951;28;20211;-76
2021/06/08 10:31:58;;;;;;;5.87;2.70;;;;;;;-144.99;41.64;52089.38;5066819;28;20208;-73
2021/06/08 10:34:33;;;;;;;3.63;2.60;;;;;;;-144.99;42.01;52077.16;5066969;28;20246;-74
2021/06/08 10:37:07;;;;;;;5.80;2.97;;;;;;;-144.99;41.97;52087.34;5066544;28;20247;-73
2021/06/08 10:39:42;;;;;;;3.23;2.23;;;;;;;-144.99;41.97;52117.91;5067524;28;20238;-74
2021/06/08 10:42:17;;;;;;;4.90;2.43;;;;;;;-144.99;41.98;52040.47;5063940;28;20207;-74
2021/06/08 10:44:52;;;;;;;4.30;2.97;;;;;;;-144.99;41.82;52048.63;5055593;28;20255;-74
2021/06/08 10:47:33;;;;;;;3.97;2.50;;;;;;;-144.99;41.40;52005.81;5062439;28;20211;-74
2021/06/08 10:50:21;;;;;;;3.37;2.60;;;;;;;-144.99;40.88;51993.59;5069377;28;20290;-73
2021/06/08 10:52:57;;;;;;;4.80;2.73;;;;;;;-144.99;40.69;52016.00;5065442;28;20377;-75
2021/06/08 10:55:40;;;;;;;4.90;4.03;;;;;;;-144.99;40.72;51987.47;5053498;28;20701;-75
2021/06/08 10:58:16;;;;;;;7.40;2.67;;;;;;;-144.99;40.91;52052.69;5060639;28;20234;-73
2021/06/08 11:00:52;;;;;;;3.97;2.77;;;;;;;-144.99;41.05;52073.06;5071094;28;20228;-76
2021/06/08 11:03:57;;;;;;;6.43;2.60;;;;;;;-144.99;40.60;52016.00;5077541;28;20228;-80
2021/06/08 11:06:51;;;;;;;5.37;2.90;;;;;;;-144.99;40.74;52048.63;5061156;28;20557;-76
2021/06/08 11:09:39;;;;;;;3.70;2.37;;;;;;;-144.99;40.83;52069.00;5055318;28;20208;-78
2021/06/08 11:12:26;;;;;;;2.73;2.07;;;;;;;-144.99;40.55;52095.50;5067477;28;20219;-78
2021/06/08 11:14:59;;;;;;;5.60;3.30;;;;;;;-144.99;40.25;52044.53;5064633;28;20221;-81
2021/06/08 11:17:48;;;;;;;3.13;2.10;;;;;;;-144.99;40.17;52032.31;5070187;28;20274;-79
2021/06/08 11:20:29;;;;;;;3.30;2.30;;;;;;;-144.99;39.83;51995.63;5067003;28;20213;-79
2021/06/08 11:23:08;;;;;;;4.57;2.17;;;;;;;-144.99;39.50;52024.16;5061189;28;20270;-78
2021/06/08 11:25:54;;;;;;;3.90;2.07;;;;;;;-144.99;39.75;51975.25;5068075;28;20219;-79
2021/06/08 11:28:41;;;;;;;3.47;2.23;;;;;;;-144.99;39.69;51958.94;5062276;28;20217;-77
2021/06/08 11:31:17;;;;;;;5.20;3.07;;;;;;;-144.99;39.71;52069.00;5064063;28;20285;-78
2021/06/08 11:33:53;;;;;;;5.27;2.27;;;;;;;-144.99;39.72;52034.34;5070949;28;20366;-79
2021/06/08 11:36:49;;;;;;;4.60;2.57;;;;;;;-144.99;39.79;52056.78;5068480;28;20259;-77
2021/06/08 11:39:31;;;;;;;4.37;2.83;;;;;;;-144.99;40.69;52077.16;5069029;28;20718;-78
2021/06/08 11:42:08;;;;;;;5.20;3.00;;;;;;;-144.99;41.15;52087.34;5062633;28;20484;-76
2021/06/08 11:44:42;;;;;;;4.60;2.47;;;;;;;-144.99;40.89;52032.31;5063608;28;20323;-78
2021/06/08 11:47:18;;;;;;;4.43;2.73;;;;;;;-144.99;41.20;52097.53;5060311;28;20237;-81
2021/06/08 11:50:03;;;;;;;5.17;2.57;;;;;;;-144.99;40.86;52089.38;5066751;28;20285;-74
2021/06/08 11:52:39;;;;;;;3.37;2.07;;;;;;;-144.99;40.81;52101.59;5066817;28;20240;-76
2021/06/08 11:55:27;;;;;;;6.03;2.17;;;;;;;-144.99;41.12;52020.09;5069394;28;20595;-77
2021/06/08 11:58:02;;;;;;;3.70;2.70;;;;;;;-144.99;40.78;52028.22;5065970;28;20208;-77